Airfield :
LOGIN :

Register | Disclaimer

   EN    FR    IT 

 










Legend :    VFR   Marginal VFR   IFR   Intensive IFR   Very Intensive IFR
Visi :
Ceiling :
>= 8 km
>= 3000ft
5 to 8 km
1000 to 3000 ft
1500m to 5 km
500 to 1000 ft
800 to 1500m
200 to 500 ft
< 800m
< 200 ft
Symbols :   Thunderstorms  Fog  Heavy snow  Heavy precipitations  Wind > 20 kt
SIGMETs :     Misc.  Thunderstorms  Icing  Turbulence  Mountain Waves  Volcanic Ashes







- Airport Elevation : 459 ft
- IATA code : CER
- Download approach charts


LFRC - Cherbourg / Maupertus

CURRENT METAR :
  • 230530Z AUTO 16007KT CAVOK 13/08 Q0996 NOSIG

EXPIRED METARs :
  • 230500Z AUTO 14005KT CAVOK 12/08 Q0996
  • 230430Z AUTO 14006KT CAVOK 12/08 Q0996
  • 230400Z AUTO 15005KT CAVOK 12/08 Q0996
  • 230330Z AUTO 14006KT CAVOK 13/08 Q0997
  • 230300Z AUTO 12009KT CAVOK 14/08 Q0997

TAF TAF LFRC
Valid from the 23 at 06:00 until the 23 at 15:00 UTC


230500Z 2306/2315 14008KT CAVOK
PROB30
TEMPO 2312/2315 5000 TSRA BKN070CB
No reported NOTAMs for that airfield.



MET'MAP, your aeronautical weather chart ! - Copyright ORBIFLY December 2007 - Disclaimer

ORBIFLY MET'MAP TEAM :

Programming & Development : Alexandra Zaïnal
Concept & Development : Baudouin d'Aumeries
Co-Development & Prog : Marc-Olivier Méhu
Technical & hardware support : Manuel Goepfert

Contact : metmap@orbifly.com




SOURCES & CREDITS :

   NOAA